< < Back
Terminal Aerodrome Forecast


Current Version              Previous Versions:   1  2  3  4  5  6  7  8  9  

Terminal Aerodrome Forecast

114
FTUS42 KJAX 242300 RRA
TAFSSI
TAF
KSSI 242351Z 2500/2524 11007KT P6SM SCT100
     FM250500 19005KT P6SM SCT250
     FM251300 24009KT P6SM SCT080 BKN250
     FM252000 21010G18KT P6SM SCT080=



Latest METAR

158
SAUS70 KWBC 250200 RRH
MTRSSI
METAR KSSI 250153Z AUTO 11004KT 8SM CLR 21/20 A2996 RMK AO2 SLP146
T02110200 PWINO $


USA.gov is the U.S. government's official web portal to all federal, state and local government web resources and services.